地図

経路データ

SID SEASON NUMBER BASIN SUBBASIN NAME ISO_TIME NATURE LAT LON WMO_WIND WMO_PRES WMO_AGENCY TRACK_TYPE DIST2LAND LANDFALL IFLAG USA_AGENCY USA_ATCF_ID USA_LAT USA_LON USA_RECORD USA_STATUS USA_WIND USA_PRES USA_SSHS USA_R34_NE USA_R34_SE USA_R34_SW USA_R34_NW USA_R50_NE USA_R50_SE USA_R50_SW USA_R50_NW USA_R64_NE USA_R64_SE USA_R64_SW USA_R64_NW USA_POCI USA_ROCI USA_RMW USA_EYE TOKYO_LAT TOKYO_LON TOKYO_GRADE TOKYO_WIND TOKYO_PRES TOKYO_R50_DIR TOKYO_R50_LONG TOKYO_R50_SHORT TOKYO_R30_DIR TOKYO_R30_LONG TOKYO_R30_SHORT TOKYO_LAND CMA_LAT CMA_LON CMA_CAT CMA_WIND CMA_PRES HKO_LAT HKO_LON HKO_CAT HKO_WIND HKO_PRES NEWDELHI_LAT NEWDELHI_LON NEWDELHI_GRADE NEWDELHI_WIND NEWDELHI_PRES NEWDELHI_CI NEWDELHI_DP NEWDELHI_POCI REUNION_LAT REUNION_LON REUNION_TYPE REUNION_WIND REUNION_PRES REUNION_TNUM REUNION_CI REUNION_RMW REUNION_R34_NE REUNION_R34_SE REUNION_R34_SW REUNION_R34_NW REUNION_R50_NE REUNION_R50_SE REUNION_R50_SW REUNION_R50_NW REUNION_R64_NE REUNION_R64_SE REUNION_R64_SW REUNION_R64_NW BOM_LAT BOM_LON BOM_TYPE BOM_WIND BOM_PRES BOM_TNUM BOM_CI BOM_RMW BOM_R34_NE BOM_R34_SE BOM_R34_SW BOM_R34_NW BOM_R50_NE BOM_R50_SE BOM_R50_SW BOM_R50_NW BOM_R64_NE BOM_R64_SE BOM_R64_SW BOM_R64_NW BOM_ROCI BOM_POCI BOM_EYE BOM_POS_METHOD BOM_PRES_METHOD NADI_LAT NADI_LON NADI_CAT NADI_WIND NADI_PRES WELLINGTON_LAT WELLINGTON_LON WELLINGTON_WIND WELLINGTON_PRES DS824_LAT DS824_LON DS824_STAGE DS824_WIND DS824_PRES TD9636_LAT TD9636_LON TD9636_STAGE TD9636_WIND TD9636_PRES TD9635_LAT TD9635_LON TD9635_WIND TD9635_PRES TD9635_ROCI NEUMANN_LAT NEUMANN_LON NEUMANN_CLASS NEUMANN_WIND NEUMANN_PRES MLC_LAT MLC_LON MLC_CLASS MLC_WIND MLC_PRES USA_GUST BOM_GUST BOM_GUST_PER REUNION_GUST REUNION_GUST_PER USA_SEAHGT USA_SEARAD_NE USA_SEARAD_SE USA_SEARAD_SW USA_SEARAD_NW STORM_SPEED STORM_DIR
1984299N26289 1984 105 NA NA NOT_NAMED 1984-10-25 06:00:00 TS 26.2000 -71.4000 20 hurdat_atl main 582 579 O_____________ hurdat_atl AL171984 26.2000 -71.4000 TD 20 -1 16 295
1984299N26289 1984 105 NA NA NOT_NAMED 1984-10-25 09:00:00 TS 26.5334 -72.1989 main 595 533 P_____________ AL171984 26.5334 -72.1989 TD 22 -1 16 293
1984299N26289 1984 105 NA NA NOT_NAMED 1984-10-25 12:00:00 TS 26.8000 -73.0000 25 hurdat_atl main 533 465 O_____________ hurdat_atl AL171984 26.8000 -73.0000 TD 25 -1 15 286
1984299N26289 1984 105 NA NA NOT_NAMED 1984-10-25 15:00:00 TS 26.9520 -73.8003 main 469 400 P_____________ AL171984 26.9520 -73.8003 TD 25 -1 14 278
1984299N26289 1984 105 NA NA NOT_NAMED 1984-10-25 18:00:00 TS 27.0000 -74.6000 25 hurdat_atl main 400 343 O_____________ hurdat_atl AL171984 27.0000 -74.6000 TD 25 -1 14 270
1984299N26289 1984 105 NA NA NOT_NAMED 1984-10-25 21:00:00 TS 26.9644 -75.3931 main 335 269 P_____________ AL171984 26.9644 -75.3931 TD 27 -1 14 266
1984299N26289 1984 105 NA NA NOT_NAMED 1984-10-26 00:00:00 TS 26.9000 -76.2000 30 hurdat_atl main 269 224 O_____________ hurdat_atl AL171984 26.9000 -76.2000 TD 30 -1 15 267
1984299N26289 1984 105 NA NA NOT_NAMED 1984-10-26 03:00:00 TS 26.8851 -77.0725 main 220 201 P_____________ AL171984 26.8851 -77.0725 TD 30 -1 15 270
1984299N26289 1984 105 NA NA NOT_NAMED 1984-10-26 06:00:00 TS 26.9000 -77.9000 30 hurdat_atl main 201 149 O_____________ hurdat_atl AL171984 26.9000 -77.9000 TD 30 -1 13 272
1984299N26289 1984 105 NA NA NOT_NAMED 1984-10-26 09:00:00 TS 26.9335 -78.5352 main 149 82 P_____________ AL171984 26.9335 -78.5352 TD 30 -1 12 275
1984299N26289 1984 105 NA NA NOT_NAMED 1984-10-26 12:00:00 TS 27.0000 -79.2000 30 hurdat_atl main 82 9 O_____________ hurdat_atl AL171984 27.0000 -79.2000 TD 30 -1 14 275
1984299N26289 1984 105 NA NA NOT_NAMED 1984-10-26 15:00:00 TS 27.0627 -80.1057 main 9 0 P_____________ AL171984 27.0627 -80.1057 TD 27 -1 17 277
1984299N26289 1984 105 NA NA NOT_NAMED 1984-10-26 18:00:00 TS 27.2000 -81.1000 25 hurdat_atl main 0 0 O_____________ hurdat_atl AL171984 27.2000 -81.1000 TD 25 -1 18 284
1984299N26289 1984 105 NA NA NOT_NAMED 1984-10-26 21:00:00 TS 27.4995 -82.0564 main 0 0 P_____________ AL171984 27.4995 -82.0564 TD 25 -1 18 290
1984299N26289 1984 105 NA GM NOT_NAMED 1984-10-27 00:00:00 TS 27.8000 -83.0000 25 hurdat_atl main 14 14 O_____________ hurdat_atl AL171984 27.8000 -83.0000 TD 25 -1 17 284
1984299N26289 1984 105 NA GM NOT_NAMED 1984-10-27 03:00:00 TS 27.9069 -83.9165 main 98 98 P_____________ AL171984 27.9069 -83.9165 TD 25 -1 16 277
1984299N26289 1984 105 NA GM NOT_NAMED 1984-10-27 06:00:00 TS 28.0000 -84.8000 25 hurdat_atl main 186 168 O_____________ hurdat_atl AL171984 28.0000 -84.8000 TD 25 -1 16 280
1984299N26289 1984 105 NA GM NOT_NAMED 1984-10-27 09:00:00 TS 28.1899 -85.6879 main 169 163 P_____________ AL171984 28.1899 -85.6879 TD 27 -1 16 288
1984299N26289 1984 105 NA GM NOT_NAMED 1984-10-27 12:00:00 TS 28.5000 -86.5000 30 hurdat_atl main 171 156 O_____________ hurdat_atl AL171984 28.5000 -86.5000 TD 30 -1 15 300
1984299N26289 1984 105 NA GM NOT_NAMED 1984-10-27 15:00:00 TS 28.9393 -87.1880 main 156 80 P_____________ AL171984 28.9393 -87.1880 TD 30 -1 15 311
1984299N26289 1984 105 NA GM NOT_NAMED 1984-10-27 18:00:00 TS 29.5000 -87.8000 30 hurdat_atl main 80 24 O_____________ hurdat_atl AL171984 29.5000 -87.8000 TD 30 -1 16 319
1984299N26289 1984 105 NA GM NOT_NAMED 1984-10-27 21:00:00 TS 30.1332 -88.3983 main 24 0 P_____________ AL171984 30.1332 -88.3983 TD -1 17 321
1984299N26289 1984 105 NA NA NOT_NAMED 1984-10-28 00:00:00 TS 30.8000 -89.0000 hurdat_atl main 0 O_____________ hurdat_atl AL171984 30.8000 -89.0000 TD -1 17 322

IBTrACS Databaseについて

本データベースは、米国NOAAが公開する1842年以降の世界の熱帯低気圧のベストトラックデータアーカイブInternational Best Track Archive for Climate Stewardship (IBTrACS)を、ウェブで閲覧しやすい形式に変換したものです。

最終更新日:2021-12-01